Time;durP1;ratioP1;P1;durP2;ratioP2;P2;SDS_P1;SDS_P2;PMS_P1;PMS_P2;Temp;Humidity;BMP_temperature;BMP_pressure;BME280_temperature;BME280_humidity;BME280_pressure;Samples;Min_cycle;Max_cycle;Signal;HPM_P1;HPM_P2
2021/01/22 06:01:42;;;;;;;0.00;0.00;;;;;;;;;;5064228;28;20454;-50
2021/01/22 06:04:08;;;;;;;0.00;0.00;;;;;;;;;;5052615;28;20036;-50
2021/01/22 06:06:34;;;;;;;0.00;0.00;;;;;;;;;;5052731;28;20103;-54
2021/01/22 06:09:02;;;;;;;0.28;0.28;;;;;;;;;;5053185;28;20029;-52
2021/01/22 06:11:29;;;;;;;0.10;0.10;;;;;;;;;;5052705;28;20029;-52
2021/01/22 06:13:57;;;;;;;0.00;0.00;;;;;;;;;;5050000;28;20386;-53
2021/01/22 06:16:29;;;;;;;0.10;0.10;;;;;;;;;;5064233;28;20040;-53
2021/01/22 06:19:06;;;;;;;0.10;0.10;;;;;;;;;;5052613;28;20037;-52
2021/01/22 06:21:47;;;;;;;0.00;0.00;;;;;;;;;;5052253;28;20060;-52
2021/01/22 06:24:15;;;;;;;0.10;0.10;;;;;;;;;;5052726;28;20100;-55
2021/01/22 06:26:41;;;;;;;0.00;0.00;;;;;;;;;;5052716;28;20474;-52
2021/01/22 06:29:08;;;;;;;0.05;0.05;;;;;;;;;;5051611;28;20068;-51
2021/01/22 06:31:34;;;;;;;0.10;0.10;;;;;;;;;;5048841;28;20037;-52
2021/01/22 06:34:01;;;;;;;4.03;1.85;;;;;;;;;;5052110;28;20029;-52
2021/01/22 06:36:27;;;;;;;0.10;0.10;;;;;;;;;;5052140;28;20018;-52
2021/01/22 06:38:54;;;;;;;0.10;0.10;;;;;;;;;;5052736;28;20386;-51
2021/01/22 06:41:28;;;;;;;0.10;0.10;;;;;;;;;;5052249;28;20033;-51
2021/01/22 06:43:57;;;;;;;0.15;0.15;;;;;;;;;;5049388;28;20040;-51
2021/01/22 06:46:26;;;;;;;0.20;0.20;;;;;;;;;;5049573;28;20021;-53
2021/01/22 06:48:53;;;;;;;0.10;0.10;;;;;;;;;;5052037;28;20061;-51
2021/01/22 06:51:20;;;;;;;0.10;0.10;;;;;;;;;;5051892;28;20510;-52
2021/01/22 06:54:04;;;;;;;0.10;0.10;;;;;;;;;;5051919;28;20029;-54
2021/01/22 06:56:31;;;;;;;0.10;0.10;;;;;;;;;;5051946;28;20090;-52
2021/01/22 06:59:17;;;;;;;0.10;0.10;;;;;;;;;;5049239;28;20033;-52
2021/01/22 07:01:43;;;;;;;0.20;0.20;;;;;;;;;;5049983;28;20525;-52
2021/01/22 07:04:10;;;;;;;0.15;0.15;;;;;;;;;;5049596;28;20479;-52
2021/01/22 07:06:38;;;;;;;0.20;0.20;;;;;;;;;;5048509;28;20033;-52
2021/01/22 07:09:04;;;;;;;0.10;0.10;;;;;;;;;;5052107;28;20111;-50
2021/01/22 07:11:49;;;;;;;0.10;0.10;;;;;;;;;;5051943;28;20517;-52
2021/01/22 07:14:31;;;;;;;0.10;0.10;;;;;;;;;;5050751;28;20025;-52
2021/01/22 07:16:57;;;;;;;0.15;0.15;;;;;;;;;;5036630;28;20021;-51
2021/01/22 07:19:24;;;;;;;0.15;0.15;;;;;;;;;;5052003;28;20043;-51
2021/01/22 07:21:51;;;;;;;0.55;0.55;;;;;;;;;;5051518;28;20106;-52
2021/01/22 07:24:18;;;;;;;0.17;0.17;;;;;;;;;;5050212;28;20025;-51
2021/01/22 07:26:51;;;;;;;0.20;0.20;;;;;;;;;;5050173;28;20036;-51
2021/01/22 07:29:23;;;;;;;0.30;0.30;;;;;;;;;;5050248;28;20104;-52
2021/01/22 07:31:57;;;;;;;0.38;0.30;;;;;;;;;;5050128;28;20028;-53
2021/01/22 07:34:43;;;;;;;0.10;0.10;;;;;;;;;;5051979;28;20108;-52
2021/01/22 07:37:10;;;;;;;0.10;0.10;;;;;;;;;;5049244;28;20031;-53
2021/01/22 07:39:37;;;;;;;0.10;0.10;;;;;;;;;;5049744;28;20104;-53
2021/01/22 07:42:10;;;;;;;0.20;0.20;;;;;;;;;;5049754;28;20612;-51
2021/01/22 07:44:42;;;;;;;0.05;0.05;;;;;;;;;;5049908;28;20036;-52
2021/01/22 07:47:09;;;;;;;0.10;0.10;;;;;;;;;;5049713;28;20025;-53
2021/01/22 07:49:35;;;;;;;0.10;0.10;;;;;;;;;;5050968;28;20041;-52
2021/01/22 07:52:02;;;;;;;0.10;0.10;;;;;;;;;;5052374;28;20029;-52
2021/01/22 07:54:40;;;;;;;0.20;0.20;;;;;;;;;;5049353;28;20115;-51
2021/01/22 07:57:16;;;;;;;0.13;0.13;;;;;;;;;;5049603;28;20032;-53
2021/01/22 07:59:43;;;;;;;0.10;0.10;;;;;;;;;;5049075;28;20041;-51
2021/01/22 08:02:22;;;;;;;0.52;0.47;;;;;;;;;;5049301;28;20029;-51
2021/01/22 08:04:57;;;;;;;0.22;0.20;;;;;;;;;;5033916;28;20510;-54
2021/01/22 08:07:33;;;;;;;0.10;0.10;;;;;;;;;;5050618;28;20032;-52
2021/01/22 08:10:00;;;;;;;0.77;0.77;;;;;;;;;;5034699;28;20037;-53
2021/01/22 08:12:26;;;;;;;0.68;0.68;;;;;;;;;;5042995;28;20025;-51
2021/01/22 08:14:52;;;;;;;0.77;0.60;;;;;;;;;;5044462;28;20026;-53
2021/01/22 08:17:19;;;;;;;0.28;0.28;;;;;;;;;;5046611;28;20533;-51
2021/01/22 08:19:45;;;;;;;0.10;0.10;;;;;;;;;;5045401;28;20025;-52
2021/01/22 08:22:15;;;;;;;0.20;0.20;;;;;;;;;;5047614;28;20036;-51
2021/01/22 08:24:46;;;;;;;0.15;0.15;;;;;;;;;;5049086;28;20055;-51
2021/01/22 08:27:13;;;;;;;0.10;0.10;;;;;;;;;;5046288;28;20025;-52
2021/01/22 08:29:39;;;;;;;0.10;0.10;;;;;;;;;;5043337;28;20036;-52
2021/01/22 08:32:06;;;;;;;1.65;0.70;;;;;;;;;;5046531;28;20058;-51
2021/01/22 08:34:35;;;;;;;0.10;0.10;;;;;;;;;;5049164;28;20033;-53
2021/01/22 08:37:01;;;;;;;1.08;1.08;;;;;;;;;;5048440;28;20057;-51
2021/01/22 08:39:45;;;;;;;0.10;0.10;;;;;;;;;;5046300;28;20074;-52
2021/01/22 08:42:12;;;;;;;0.10;0.10;;;;;;;;;;5045455;28;20029;-53
2021/01/22 08:44:58;;;;;;;0.30;0.30;;;;;;;;;;5046789;28;20029;-50
2021/01/22 08:47:24;;;;;;;;;;;;;;;;;;5045811;28;20099;-51
2021/01/22 08:50:00;;;;;;;4.03;0.52;;;;;;;;;;5045815;28;19912;-50
2021/01/22 08:52:27;;;;;;;0.40;0.25;;;;;;;;;;5046659;28;20039;-51
2021/01/22 08:54:55;;;;;;;2.17;0.60;;;;;;;;;;5048493;28;20017;-54
2021/01/22 08:57:21;;;;;;;1.13;0.43;;;;;;;;;;5045695;28;20111;-51
2021/01/22 08:59:48;;;;;;;0.10;0.10;;;;;;;;;;5044592;28;20067;-51
2021/01/22 09:02:15;;;;;;;0.20;0.20;;;;;;;;;;5046227;28;20053;-51
2021/01/22 09:04:41;;;;;;;0.10;0.10;;;;;;;;;;5044474;28;20082;-51
2021/01/22 09:07:17;;;;;;;0.20;0.20;;;;;;;;;;5048627;28;20104;-51
2021/01/22 09:09:43;;;;;;;0.15;0.15;;;;;;;;;;5048233;28;20020;-54
2021/01/22 09:12:13;;;;;;;0.93;0.30;;;;;;;;;;5047926;28;20028;-52
2021/01/22 09:14:49;;;;;;;0.20;0.20;;;;;;;;;;5047087;28;20151;-53
2021/01/22 09:17:34;;;;;;;0.20;0.20;;;;;;;;;;5047430;28;20032;-51
2021/01/22 09:20:02;;;;;;;0.52;0.52;;;;;;;;;;5047404;28;20037;-52
2021/01/22 09:22:33;;;;;;;0.20;0.20;;;;;;;;;;5047292;28;20604;-51
2021/01/22 09:24:59;;;;;;;0.10;0.10;;;;;;;;;;5048211;28;20040;-52
2021/01/22 09:27:26;;;;;;;0.10;0.10;;;;;;;;;;5047165;28;20021;-52
2021/01/22 09:29:52;;;;;;;0.10;0.10;;;;;;;;;;5046692;28;20072;-52
2021/01/22 09:32:18;;;;;;;0.10;0.10;;;;;;;;;;5046921;28;20032;-51
2021/01/22 09:34:44;;;;;;;0.20;0.20;;;;;;;;;;5047998;28;20082;-52
2021/01/22 09:37:10;;;;;;;0.20;0.20;;;;;;;;;;5048950;28;20013;-51
2021/01/22 09:39:36;;;;;;;0.10;0.10;;;;;;;;;;5046524;28;20044;-51
2021/01/22 09:42:02;;;;;;;0.10;0.10;;;;;;;;;;5047167;28;20017;-51
2021/01/22 09:44:28;;;;;;;0.22;0.22;;;;;;;;;;5046605;28;20021;-51
2021/01/22 09:46:55;;;;;;;0.38;0.32;;;;;;;;;;5047542;28;20517;-51
2021/01/22 09:49:21;;;;;;;0.20;0.20;;;;;;;;;;5048783;28;20023;-52
2021/01/22 09:51:47;;;;;;;0.30;0.30;;;;;;;;;;5048321;28;20505;-54
2021/01/22 09:54:13;;;;;;;0.10;0.10;;;;;;;;;;5046553;28;20485;-52
2021/01/22 09:56:39;;;;;;;1.10;0.40;;;;;;;;;;5046209;28;20021;-52
2021/01/22 09:59:06;;;;;;;2.53;0.60;;;;;;;;;;5046851;28;20394;-51
2021/01/22 10:01:33;;;;;;;4.53;2.20;;;;;;;;;;5046962;28;20577;-50
2021/01/22 10:03:59;;;;;;;0.10;0.10;;;;;;;;;;5048287;28;20024;-54
2021/01/22 10:06:25;;;;;;;1.02;0.20;;;;;;;;;;5046832;28;20029;-53
2021/01/22 10:08:51;;;;;;;0.70;0.55;;;;;;;;;;5045358;28;20028;-53
2021/01/22 10:11:17;;;;;;;0.10;0.10;;;;;;;;;;5042523;28;20501;-52
2021/01/22 10:13:43;;;;;;;0.10;0.10;;;;;;;;;;5047520;28;20029;-54
2021/01/22 10:16:09;;;;;;;0.10;0.10;;;;;;;;;;5049296;28;20459;-53
2021/01/22 10:18:35;;;;;;;1.75;0.25;;;;;;;;;;5045023;28;20498;-52
2021/01/22 10:21:02;;;;;;;0.10;0.10;;;;;;;;;;5041508;28;20037;-53
2021/01/22 10:23:28;;;;;;;0.10;0.10;;;;;;;;;;5046952;28;20485;-51
2021/01/22 10:25:54;;;;;;;0.10;0.10;;;;;;;;;;5046293;28;20036;-53
2021/01/22 10:28:20;;;;;;;0.10;0.10;;;;;;;;;;5046696;28;20029;-53
2021/01/22 10:30:48;;;;;;;0.10;0.10;;;;;;;;;;5045638;28;20025;-52
2021/01/22 10:33:15;;;;;;;0.10;0.10;;;;;;;;;;5044738;28;20021;-54
2021/01/22 10:35:41;;;;;;;0.10;0.10;;;;;;;;;;5044735;28;20410;-57
2021/01/22 10:38:07;;;;;;;0.10;0.10;;;;;;;;;;5049404;28;20537;-51
2021/01/22 10:40:33;;;;;;;0.20;0.20;;;;;;;;;;5050239;28;20029;-55
2021/01/22 10:43:00;;;;;;;0.20;0.20;;;;;;;;;;5050434;28;20022;-53
2021/01/22 10:45:26;;;;;;;0.10;0.10;;;;;;;;;;5048551;28;20037;-52
2021/01/22 10:47:52;;;;;;;0.20;0.20;;;;;;;;;;5048434;28;20029;-53
2021/01/22 10:50:18;;;;;;;0.10;0.10;;;;;;;;;;5050626;28;20160;-51
2021/01/22 10:52:45;;;;;;;0.10;0.10;;;;;;;;;;5048641;28;20043;-52
2021/01/22 10:55:11;;;;;;;0.10;0.10;;;;;;;;;;5049222;28;20512;-53
2021/01/22 10:57:37;;;;;;;0.17;0.17;;;;;;;;;;5047902;28;20482;-51
2021/01/22 11:00:05;;;;;;;0.13;0.13;;;;;;;;;;5046018;28;20178;-51
2021/01/22 11:02:31;;;;;;;0.10;0.10;;;;;;;;;;5048350;28;20064;-51
2021/01/22 11:04:57;;;;;;;0.10;0.10;;;;;;;;;;5047610;28;20109;-53
2021/01/22 11:07:23;;;;;;;1.35;0.43;;;;;;;;;;5049417;28;20017;-52
2021/01/22 11:09:49;;;;;;;0.30;0.28;;;;;;;;;;5049746;28;20040;-52
2021/01/22 11:12:15;;;;;;;0.10;0.10;;;;;;;;;;5049242;28;20478;-55
2021/01/22 11:14:48;;;;;;;28.58;1.00;;;;;;;;;;5047938;28;20025;-54
2021/01/22 11:17:14;;;;;;;0.55;0.20;;;;;;;;;;5049994;28;20580;-51
2021/01/22 11:19:40;;;;;;;0.20;0.20;;;;;;;;;;5047877;28;20041;-55
2021/01/22 11:22:06;;;;;;;0.10;0.10;;;;;;;;;;5049658;28;20110;-52
2021/01/22 11:24:34;;;;;;;4.47;1.40;;;;;;;;;;5047236;28;20183;-53
2021/01/22 11:27:00;;;;;;;0.10;0.10;;;;;;;;;;5045268;28;20484;-51
2021/01/22 11:29:26;;;;;;;0.38;0.30;;;;;;;;;;5049571;28;20449;-51
2021/01/22 11:31:53;;;;;;;2.92;0.82;;;;;;;;;;5049454;28;20029;-52
2021/01/22 11:34:19;;;;;;;0.10;0.10;;;;;;;;;;5050968;28;20029;-54
2021/01/22 11:36:45;;;;;;;1.13;0.30;;;;;;;;;;5050016;28;20083;-52
2021/01/22 11:39:11;;;;;;;0.30;0.30;;;;;;;;;;5048414;28;20052;-52
2021/01/22 11:41:37;;;;;;;0.10;0.10;;;;;;;;;;5049666;28;20441;-52
2021/01/22 11:44:03;;;;;;;0.50;0.45;;;;;;;;;;5048706;28;20027;-52
2021/01/22 11:46:29;;;;;;;0.30;0.30;;;;;;;;;;5048094;28;20472;-53
2021/01/22 11:48:55;;;;;;;7.00;3.90;;;;;;;;;;5050448;28;20021;-51
2021/01/22 11:51:21;;;;;;;0.10;0.10;;;;;;;;;;5048536;28;20055;-51
2021/01/22 11:53:47;;;;;;;0.10;0.10;;;;;;;;;;5049480;28;20490;-52
2021/01/22 11:56:14;;;;;;;0.52;0.52;;;;;;;;;;5049773;28;20056;-52
2021/01/22 11:58:40;;;;;;;14.98;1.92;;;;;;;;;;5048418;28;20457;-54
2021/01/22 12:01:06;;;;;;;0.20;0.20;;;;;;;;;;5051075;28;20136;-55
2021/01/22 12:03:32;;;;;;;1.48;0.50;;;;;;;;;;5048859;28;20028;-55
2021/01/22 12:05:58;;;;;;;2.25;0.82;;;;;;;;;;5048033;28;20056;-52
2021/01/22 12:08:24;;;;;;;2.05;1.00;;;;;;;;;;5047712;28;20032;-54
2021/01/22 12:10:50;;;;;;;1.17;0.52;;;;;;;;;;5048293;28;20049;-52
2021/01/22 12:13:16;;;;;;;0.10;0.10;;;;;;;;;;5049685;28;20575;-54
2021/01/22 12:15:43;;;;;;;0.10;0.10;;;;;;;;;;5048635;28;20453;-55
2021/01/22 12:18:10;;;;;;;0.35;0.35;;;;;;;;;;5049000;28;20064;-52
2021/01/22 12:20:37;;;;;;;0.13;0.13;;;;;;;;;;5046849;28;20044;-51
2021/01/22 12:23:03;;;;;;;1.70;1.13;;;;;;;;;;5047164;28;20017;-51
2021/01/22 12:25:29;;;;;;;0.35;0.35;;;;;;;;;;5048085;28;20490;-51
2021/01/22 12:27:55;;;;;;;0.47;0.40;;;;;;;;;;5048808;28;20039;-52
2021/01/22 12:30:21;;;;;;;4.03;0.63;;;;;;;;;;5047392;28;20521;-51
2021/01/22 12:32:47;;;;;;;4.40;0.50;;;;;;;;;;5045985;28;20059;-51
2021/01/22 12:35:16;;;;;;;0.63;0.57;;;;;;;;;;5047867;28;20031;-53
2021/01/22 12:37:42;;;;;;;2.28;1.27;;;;;;;;;;5048412;28;20033;-54
2021/01/22 12:40:08;;;;;;;3.50;0.65;;;;;;;;;;5049272;28;20129;-53
2021/01/22 12:42:34;;;;;;;7.53;0.40;;;;;;;;;;5047134;28;20060;-53
2021/01/22 12:45:00;;;;;;;0.73;0.43;;;;;;;;;;5047067;28;20409;-52
2021/01/22 12:47:26;;;;;;;0.63;0.43;;;;;;;;;;5045025;28;20028;-54
2021/01/22 12:49:52;;;;;;;1.67;0.65;;;;;;;;;;5045645;28;20506;-52
2021/01/22 12:52:19;;;;;;;1.67;0.17;;;;;;;;;;5048703;28;20126;-50
2021/01/22 12:54:45;;;;;;;0.43;0.38;;;;;;;;;;5046825;28;20079;-52
2021/01/22 12:57:11;;;;;;;0.20;0.20;;;;;;;;;;5046990;28;20036;-52
2021/01/22 12:59:37;;;;;;;0.77;0.30;;;;;;;;;;5046012;28;20579;-51
2021/01/22 13:02:03;;;;;;;0.43;0.30;;;;;;;;;;5046477;28;20433;-51
2021/01/22 13:04:29;;;;;;;0.20;0.20;;;;;;;;;;5046233;28;20067;-52
2021/01/22 13:06:55;;;;;;;0.63;0.50;;;;;;;;;;5048547;28;20433;-53
2021/01/22 13:09:21;;;;;;;0.10;0.10;;;;;;;;;;5044824;28;20021;-52
2021/01/22 13:11:48;;;;;;;0.20;0.20;;;;;;;;;;5045896;28;20060;-51
2021/01/22 13:14:14;;;;;;;0.10;0.10;;;;;;;;;;5047064;28;20036;-52
2021/01/22 13:16:42;;;;;;;0.10;0.10;;;;;;;;;;5047558;28;20026;-54
2021/01/22 13:19:08;;;;;;;0.50;0.25;;;;;;;;;;5048981;28;20433;-52
2021/01/22 13:21:34;;;;;;;0.10;0.10;;;;;;;;;;5046158;28;20020;-54
2021/01/22 13:24:00;;;;;;;0.10;0.10;;;;;;;;;;5045370;28;20360;-52
2021/01/22 13:26:26;;;;;;;1.55;0.20;;;;;;;;;;5046679;28;20021;-51
2021/01/22 13:28:52;;;;;;;0.55;0.30;;;;;;;;;;5047659;28;20444;-51
2021/01/22 13:31:18;;;;;;;0.30;0.30;;;;;;;;;;5045607;28;20074;-53
2021/01/22 13:33:45;;;;;;;2.00;0.55;;;;;;;;;;5042350;28;20021;-52
2021/01/22 13:36:11;;;;;;;0.35;0.20;;;;;;;;;;5042970;28;20033;-52
2021/01/22 13:38:37;;;;;;;0.20;0.20;;;;;;;;;;5045340;28;22144;-53
2021/01/22 13:41:03;;;;;;;0.10;0.10;;;;;;;;;;5045710;28;20037;-51
2021/01/22 13:43:29;;;;;;;0.20;0.20;;;;;;;;;;5046771;28;20029;-55
2021/01/22 13:45:55;;;;;;;4.25;0.70;;;;;;;;;;5047682;28;20029;-52
2021/01/22 13:48:22;;;;;;;0.20;0.20;;;;;;;;;;5046579;28;20375;-51
2021/01/22 13:50:48;;;;;;;1.40;1.25;;;;;;;;;;5045697;28;20413;-52
2021/01/22 13:53:14;;;;;;;3.30;0.40;;;;;;;;;;5046862;28;20235;-52
2021/01/22 13:55:40;;;;;;;1.25;0.40;;;;;;;;;;5045567;28;20030;-51
2021/01/22 13:58:06;;;;;;;2.05;0.40;;;;;;;;;;5043842;28;20083;-52
2021/01/22 14:00:33;;;;;;;0.10;0.10;;;;;;;;;;5047406;28;20045;-52
2021/01/22 14:02:59;;;;;;;0.20;0.20;;;;;;;;;;5046599;28;20025;-51
2021/01/22 14:05:25;;;;;;;0.10;0.10;;;;;;;;;;5046447;28;20492;-52
2021/01/22 14:07:51;;;;;;;0.20;0.20;;;;;;;;;;5046744;28;20075;-53
2021/01/22 14:10:17;;;;;;;0.98;0.50;;;;;;;;;;5046879;28;20448;-51
2021/01/22 14:12:43;;;;;;;0.10;0.10;;;;;;;;;;5047846;28;20437;-57
2021/01/22 14:15:10;;;;;;;0.30;0.30;;;;;;;;;;5048662;28;20641;-51
2021/01/22 14:17:36;;;;;;;0.20;0.20;;;;;;;;;;5051143;28;20119;-52
2021/01/22 14:20:04;;;;;;;0.32;0.20;;;;;;;;;;5050276;28;20100;-52
2021/01/22 14:22:30;;;;;;;0.20;0.20;;;;;;;;;;5051711;28;20056;-54
2021/01/22 14:24:56;;;;;;;0.20;0.20;;;;;;;;;;5050193;28;20040;-55
2021/01/22 14:27:22;;;;;;;0.10;0.10;;;;;;;;;;5050887;28;20490;-58
2021/01/22 14:29:48;;;;;;;0.10;0.10;;;;;;;;;;5049260;28;20082;-59
2021/01/22 14:32:14;;;;;;;0.10;0.10;;;;;;;;;;5050370;28;20107;-58
2021/01/22 14:34:40;;;;;;;0.10;0.10;;;;;;;;;;5050674;28;20036;-59
2021/01/22 14:37:06;;;;;;;0.20;0.20;;;;;;;;;;5051156;28;20036;-56
2021/01/22 14:39:32;;;;;;;1.10;1.10;;;;;;;;;;5049827;28;20120;-59
2021/01/22 14:41:58;;;;;;;1.27;0.28;;;;;;;;;;5050547;28;20504;-59
2021/01/22 14:44:24;;;;;;;0.35;0.20;;;;;;;;;;5049995;28;20548;-58
2021/01/22 14:46:51;;;;;;;0.10;0.10;;;;;;;;;;5049655;28;20033;-57
2021/01/22 14:49:17;;;;;;;1.55;1.35;;;;;;;;;;5049551;28;20036;-58
2021/01/22 14:51:43;;;;;;;0.10;0.10;;;;;;;;;;5051037;28;20024;-59
2021/01/22 14:54:09;;;;;;;0.80;0.20;;;;;;;;;;5048417;28;20121;-58
2021/01/22 14:56:35;;;;;;;1.02;0.32;;;;;;;;;;5047969;28;20086;-58
2021/01/22 14:59:01;;;;;;;3.03;0.35;;;;;;;;;;5049170;28;20025;-58
2021/01/22 15:01:27;;;;;;;0.40;0.32;;;;;;;;;;5048692;28;20044;-53
2021/01/22 15:03:53;;;;;;;0.20;0.20;;;;;;;;;;5049263;28;20418;-53
2021/01/22 15:06:19;;;;;;;1.13;0.30;;;;;;;;;;5048685;28;20052;-51
2021/01/22 15:08:45;;;;;;;1.23;0.30;;;;;;;;;;5048647;28;20025;-53
2021/01/22 15:11:11;;;;;;;3.72;0.20;;;;;;;;;;5050117;28;20052;-54
2021/01/22 15:13:37;;;;;;;0.10;0.10;;;;;;;;;;5050851;28;20086;-51
2021/01/22 15:16:04;;;;;;;4.75;0.38;;;;;;;;;;5048143;28;20033;-54
2021/01/22 15:18:30;;;;;;;0.20;0.20;;;;;;;;;;5048939;28;20051;-52
2021/01/22 15:20:56;;;;;;;6.15;0.60;;;;;;;;;;5048625;28;20405;-51
2021/01/22 15:23:22;;;;;;;1.17;0.22;;;;;;;;;;5047544;28;20045;-51
2021/01/22 15:25:48;;;;;;;0.28;0.20;;;;;;;;;;5048159;28;20032;-51
2021/01/22 15:28:14;;;;;;;1.00;0.28;;;;;;;;;;5052073;28;20437;-51
2021/01/22 15:30:40;;;;;;;42.55;2.15;;;;;;;;;;5049342;28;20059;-52
2021/01/22 15:33:07;;;;;;;0.10;0.10;;;;;;;;;;5041896;28;20022;-52
2021/01/22 15:35:33;;;;;;;0.25;0.25;;;;;;;;;;5036864;28;20436;-51
2021/01/22 15:37:59;;;;;;;1.38;0.80;;;;;;;;;;5048712;28;20078;-53
2021/01/22 15:40:25;;;;;;;0.93;0.93;;;;;;;;;;5080732;28;20064;-51
2021/01/22 15:42:51;;;;;;;0.10;0.10;;;;;;;;;;5037359;28;20026;-54
2021/01/22 15:45:17;;;;;;;0.20;0.20;;;;;;;;;;5037717;28;20403;-50
2021/01/22 15:47:44;;;;;;;0.82;0.43;;;;;;;;;;5039443;28;20029;-51
2021/01/22 15:50:10;;;;;;;0.10;0.10;;;;;;;;;;5034570;28;20030;-51
2021/01/22 15:52:36;;;;;;;3.30;1.05;;;;;;;;;;5048675;28;20041;-50
2021/01/22 15:55:03;;;;;;;0.63;0.22;;;;;;;;;;5043842;28;20126;-54
2021/01/22 15:57:29;;;;;;;1.45;0.43;;;;;;;;;;5049247;28;20029;-52
2021/01/22 15:59:55;;;;;;;0.30;0.30;;;;;;;;;;5041551;28;20044;-52
2021/01/22 16:02:21;;;;;;;0.55;0.55;;;;;;;;;;5033734;28;20085;-51
2021/01/22 16:04:47;;;;;;;0.20;0.20;;;;;;;;;;5032571;28;20399;-50
2021/01/22 16:07:14;;;;;;;0.17;0.17;;;;;;;;;;5033428;28;20438;-51
2021/01/22 16:09:40;;;;;;;0.10;0.10;;;;;;;;;;5031425;28;20026;-53
2021/01/22 16:12:06;;;;;;;1.95;1.85;;;;;;;;;;5032745;28;20120;-50
2021/01/22 16:14:33;;;;;;;0.20;0.20;;;;;;;;;;5032582;28;20013;-53
2021/01/22 16:16:59;;;;;;;4.57;0.55;;;;;;;;;;5031433;28;20418;-52
2021/01/22 16:19:26;;;;;;;0.85;0.40;;;;;;;;;;5036264;28;20100;-50
2021/01/22 16:21:52;;;;;;;0.25;0.25;;;;;;;;;;5032388;28;20025;-51
2021/01/22 16:24:20;;;;;;;0.20;0.20;;;;;;;;;;5032885;28;20396;-54
2021/01/22 16:26:46;;;;;;;1.30;0.60;;;;;;;;;;5032993;28;20549;-54
2021/01/22 16:29:12;;;;;;;0.20;0.20;;;;;;;;;;5031461;28;20029;-54
2021/01/22 16:31:38;;;;;;;0.98;0.63;;;;;;;;;;5031514;28;20116;-52
2021/01/22 16:34:05;;;;;;;5.18;2.13;;;;;;;;;;5035233;28;20049;-50
2021/01/22 16:36:31;;;;;;;0.50;0.50;;;;;;;;;;5032976;28;20033;-54
2021/01/22 16:38:57;;;;;;;8.57;2.28;;;;;;;;;;5034760;28;20029;-50
2021/01/22 16:41:23;;;;;;;3.75;1.40;;;;;;;;;;5031718;28;20114;-51
2021/01/22 16:43:49;;;;;;;0.30;0.30;;;;;;;;;;5032969;28;20033;-52
2021/01/22 16:46:16;;;;;;;3.20;1.55;;;;;;;;;;5035292;28;20060;-52
2021/01/22 16:48:43;;;;;;;5.38;3.50;;;;;;;;;;5031986;28;20530;-51
2021/01/22 16:51:09;;;;;;;1.67;0.60;;;;;;;;;;5033600;28;20065;-53
2021/01/22 16:53:35;;;;;;;0.40;0.40;;;;;;;;;;5036706;28;20067;-54
2021/01/22 16:56:01;;;;;;;0.90;0.30;;;;;;;;;;5032406;28;20513;-53
2021/01/22 16:58:27;;;;;;;1.27;1.27;;;;;;;;;;5039562;28;20029;-51
2021/01/22 17:00:54;;;;;;;4.30;0.60;;;;;;;;;;5035573;28;20045;-52
2021/01/22 17:03:22;;;;;;;0.20;0.20;;;;;;;;;;5047062;28;20096;-54
2021/01/22 17:05:48;;;;;;;0.30;0.30;;;;;;;;;;5047806;28;20020;-53
2021/01/22 17:08:14;;;;;;;0.20;0.20;;;;;;;;;;5048041;28;20040;-53
2021/01/22 17:10:40;;;;;;;0.20;0.20;;;;;;;;;;5032258;28;20494;-50
2021/01/22 17:13:06;;;;;;;0.20;0.20;;;;;;;;;;5035994;28;20060;-51
2021/01/22 17:15:32;;;;;;;0.20;0.20;;;;;;;;;;5036340;28;20494;-52
2021/01/22 17:17:58;;;;;;;0.98;0.50;;;;;;;;;;5041704;28;20381;-51
2021/01/22 17:20:24;;;;;;;0.43;0.43;;;;;;;;;;5046934;28;20076;-54
2021/01/22 17:22:50;;;;;;;0.90;0.70;;;;;;;;;;5047579;28;20056;-53
2021/01/22 17:25:17;;;;;;;13.40;1.38;;;;;;;;;;5050925;28;20037;-50
2021/01/22 17:27:43;;;;;;;0.20;0.20;;;;;;;;;;5047755;28;20017;-51
2021/01/22 17:30:10;;;;;;;0.25;0.25;;;;;;;;;;5047192;28;20478;-51
2021/01/22 17:32:36;;;;;;;0.73;0.73;;;;;;;;;;5047350;28;20029;-52
2021/01/22 17:35:03;;;;;;;0.20;0.20;;;;;;;;;;5047687;28;20433;-51
2021/01/22 17:37:30;;;;;;;0.98;0.93;;;;;;;;;;5050157;28;20029;-51
2021/01/22 17:39:56;;;;;;;0.93;0.93;;;;;;;;;;5049010;28;20112;-51
2021/01/22 17:42:22;;;;;;;0.15;0.15;;;;;;;;;;5046917;28;20017;-51
2021/01/22 17:44:48;;;;;;;3.10;0.55;;;;;;;;;;5046806;28;20069;-53
2021/01/22 17:47:14;;;;;;;0.35;0.35;;;;;;;;;;5047358;28;20056;-53
2021/01/22 17:49:42;;;;;;;2.42;0.80;;;;;;;;;;5048207;28;20124;-52
2021/01/22 17:52:08;;;;;;;2.40;0.80;;;;;;;;;;5048544;28;20390;-54
2021/01/22 17:54:34;;;;;;;0.30;0.30;;;;;;;;;;5048482;28;20403;-53
2021/01/22 17:57:01;;;;;;;0.30;0.30;;;;;;;;;;5048693;28;20021;-55
2021/01/22 17:59:27;;;;;;;0.20;0.20;;;;;;;;;;5048238;28;20486;-56
2021/01/22 18:01:53;;;;;;;0.20;0.20;;;;;;;;;;5048413;28;20030;-51
2021/01/22 18:04:19;;;;;;;0.55;0.28;;;;;;;;;;5049721;28;20017;-54
2021/01/22 18:06:45;;;;;;;3.47;0.82;;;;;;;;;;5049611;28;20127;-54
2021/01/22 18:09:11;;;;;;;0.85;0.50;;;;;;;;;;5047832;28;20025;-53
2021/01/22 18:11:37;;;;;;;1.95;1.00;;;;;;;;;;5047397;28;20028;-54
2021/01/22 18:14:03;;;;;;;6.45;0.43;;;;;;;;;;5047515;28;20108;-51
2021/01/22 18:16:29;;;;;;;1.15;0.98;;;;;;;;;;5048789;28;20048;-54
2021/01/22 18:18:56;;;;;;;0.63;0.63;;;;;;;;;;5048765;28;20025;-55
2021/01/22 18:21:22;;;;;;;1.80;0.30;;;;;;;;;;5046929;28;20037;-52
2021/01/22 18:23:48;;;;;;;0.20;0.20;;;;;;;;;;5046814;28;20047;-55
2021/01/22 18:26:14;;;;;;;7.47;0.50;;;;;;;;;;5048155;28;20036;-52
2021/01/22 18:28:40;;;;;;;0.10;0.10;;;;;;;;;;5047654;28;20100;-55
2021/01/22 18:31:06;;;;;;;0.40;0.30;;;;;;;;;;5049451;28;20116;-54
2021/01/22 18:33:32;;;;;;;0.25;0.25;;;;;;;;;;5048740;28;20024;-55
2021/01/22 18:35:59;;;;;;;0.68;0.35;;;;;;;;;;5047009;28;20029;-53
2021/01/22 18:38:25;;;;;;;0.57;0.57;;;;;;;;;;5046915;28;20106;-53
2021/01/22 18:40:51;;;;;;;0.20;0.20;;;;;;;;;;5046858;28;20566;-55
2021/01/22 18:43:17;;;;;;;0.70;0.22;;;;;;;;;;5050148;28;20104;-55
2021/01/22 18:45:43;;;;;;;0.20;0.20;;;;;;;;;;5047733;28;20452;-53
2021/01/22 18:48:09;;;;;;;0.85;0.30;;;;;;;;;;5046995;28;20075;-52
2021/01/22 18:50:35;;;;;;;0.20;0.20;;;;;;;;;;5045587;28;20091;-56
2021/01/22 18:53:02;;;;;;;0.10;0.10;;;;;;;;;;5047068;28;20104;-53
2021/01/22 18:55:28;;;;;;;0.73;0.73;;;;;;;;;;5048002;28;20386;-55
2021/01/22 18:57:54;;;;;;;0.20;0.20;;;;;;;;;;5051077;28;20021;-55
2021/01/22 19:00:20;;;;;;;6.22;0.57;;;;;;;;;;5051402;28;20049;-54
2021/01/22 19:02:46;;;;;;;0.93;0.68;;;;;;;;;;5048508;28;20021;-54
2021/01/22 19:05:13;;;;;;;0.20;0.20;;;;;;;;;;5050079;28;20518;-56
2021/01/22 19:07:39;;;;;;;1.02;1.00;;;;;;;;;;5051525;28;20414;-52
2021/01/22 19:10:05;;;;;;;0.20;0.20;;;;;;;;;;5052621;28;20041;-56
2021/01/22 19:12:36;;;;;;;0.20;0.20;;;;;;;;;;5044198;28;20156;-54
2021/01/22 19:15:04;;;;;;;0.52;0.52;;;;;;;;;;5041348;28;20049;-55
2021/01/22 19:17:30;;;;;;;0.20;0.20;;;;;;;;;;5042375;28;20033;-56
2021/01/22 19:19:56;;;;;;;19.23;4.70;;;;;;;;;;5048382;28;20033;-54
2021/01/22 19:22:22;;;;;;;0.95;0.60;;;;;;;;;;5040879;28;20482;-57
2021/01/22 19:24:48;;;;;;;0.30;0.30;;;;;;;;;;5035201;28;20037;-54
2021/01/22 19:27:14;;;;;;;0.93;0.88;;;;;;;;;;5045828;28;20407;-56
2021/01/22 19:29:40;;;;;;;3.22;1.13;;;;;;;;;;5044857;28;20041;-55
2021/01/22 19:32:07;;;;;;;2.13;0.77;;;;;;;;;;5033561;28;20032;-56
2021/01/22 19:34:33;;;;;;;1.20;0.80;;;;;;;;;;5032489;28;20502;-56
2021/01/22 19:36:59;;;;;;;4.70;2.42;;;;;;;;;;5032105;28;20030;-55
2021/01/22 19:39:25;;;;;;;0.22;0.22;;;;;;;;;;5032698;28;20030;-55
2021/01/22 19:41:51;;;;;;;2.50;1.05;;;;;;;;;;5041372;28;20039;-56
2021/01/22 19:44:17;;;;;;;0.85;0.43;;;;;;;;;;5037449;28;20032;-54
2021/01/22 19:46:44;;;;;;;6.05;3.30;;;;;;;;;;5041308;28;20091;-53
2021/01/22 19:49:10;;;;;;;1.92;0.50;;;;;;;;;;5040352;28;20131;-55
2021/01/22 19:51:36;;;;;;;1.10;0.75;;;;;;;;;;5039540;28;20032;-55
2021/01/22 19:54:02;;;;;;;0.20;0.20;;;;;;;;;;5039910;28;20021;-54
2021/01/22 19:56:28;;;;;;;17.67;1.02;;;;;;;;;;5043977;28;20033;-53
2021/01/22 19:58:54;;;;;;;0.60;0.60;;;;;;;;;;5045669;28;20125;-54
2021/01/22 20:01:21;;;;;;;0.30;0.30;;;;;;;;;;5043969;28;20052;-55
2021/01/22 20:03:47;;;;;;;0.50;0.50;;;;;;;;;;5041885;28;20071;-55
2021/01/22 20:06:13;;;;;;;0.20;0.20;;;;;;;;;;5043909;28;20098;-54
2021/01/22 20:08:39;;;;;;;0.40;0.40;;;;;;;;;;5041978;28;20033;-53
2021/01/22 20:11:05;;;;;;;0.20;0.20;;;;;;;;;;5058244;28;20079;-53
2021/01/22 20:13:32;;;;;;;0.20;0.20;;;;;;;;;;5046013;28;20112;-56
2021/01/22 20:15:58;;;;;;;0.20;0.20;;;;;;;;;;5041068;28;20540;-54
2021/01/22 20:18:24;;;;;;;0.20;0.20;;;;;;;;;;5039633;28;20394;-54
2021/01/22 20:20:50;;;;;;;0.60;0.60;;;;;;;;;;5040041;28;20367;-50
2021/01/22 20:23:16;;;;;;;1.38;1.38;;;;;;;;;;5051593;28;20483;-55
2021/01/22 20:25:42;;;;;;;0.85;0.85;;;;;;;;;;5036464;28;20108;-55
2021/01/22 20:28:08;;;;;;;7.50;1.13;;;;;;;;;;5042089;28;20436;-55
2021/01/22 20:30:35;;;;;;;0.38;0.38;;;;;;;;;;5038439;28;20036;-55
2021/01/22 20:33:01;;;;;;;1.30;0.88;;;;;;;;;;5042149;28;20025;-55
2021/01/22 20:35:28;;;;;;;1.50;0.52;;;;;;;;;;5043604;28;20037;-53
2021/01/22 20:37:54;;;;;;;0.20;0.20;;;;;;;;;;5040476;28;20033;-54
2021/01/22 20:40:20;;;;;;;3.50;1.20;;;;;;;;;;5042253;28;20032;-52
2021/01/22 20:42:46;;;;;;;6.78;1.35;;;;;;;;;;5040134;28;20044;-54